sensor_id;sensor_type;location;lat;lon;timestamp;temperature;humidity
21244;DHT22;10780;50.942;4.028;2023-08-07T00:00:22;13.00;99.90
21244;DHT22;10780;50.942;4.028;2023-08-07T00:02:48;13.00;99.90
21244;DHT22;10780;50.942;4.028;2023-08-07T00:05:14;12.90;99.90
21244;DHT22;10780;50.942;4.028;2023-08-07T00:07:42;12.90;99.90
21244;DHT22;10780;50.942;4.028;2023-08-07T00:10:08;13.00;99.90
21244;DHT22;10780;50.942;4.028;2023-08-07T00:12:34;12.90;99.90
21244;DHT22;10780;50.942;4.028;2023-08-07T00:14:59;13.00;99.90
21244;DHT22;10780;50.942;4.028;2023-08-07T00:17:26;12.90;99.90
21244;DHT22;10780;50.942;4.028;2023-08-07T00:19:51;12.90;99.90
21244;DHT22;10780;50.942;4.028;2023-08-07T00:22:17;12.90;99.90
21244;DHT22;10780;50.942;4.028;2023-08-07T00:24:43;13.00;99.90
21244;DHT22;10780;50.942;4.028;2023-08-07T00:27:08;12.90;99.90
21244;DHT22;10780;50.942;4.028;2023-08-07T00:29:36;12.90;99.90
21244;DHT22;10780;50.942;4.028;2023-08-07T00:32:02;13.00;99.90
21244;DHT22;10780;50.942;4.028;2023-08-07T00:34:29;13.00;99.90
21244;DHT22;10780;50.942;4.028;2023-08-07T00:36:54;12.90;99.90
21244;DHT22;10780;50.942;4.028;2023-08-07T00:39:20;13.00;99.90
21244;DHT22;10780;50.942;4.028;2023-08-07T00:41:46;12.90;99.90
21244;DHT22;10780;50.942;4.028;2023-08-07T00:44:12;12.90;99.90
21244;DHT22;10780;50.942;4.028;2023-08-07T00:46:37;12.80;99.90
21244;DHT22;10780;50.942;4.028;2023-08-07T00:49:05;12.80;99.90
21244;DHT22;10780;50.942;4.028;2023-08-07T00:51:32;12.80;99.90
21244;DHT22;10780;50.942;4.028;2023-08-07T00:53:58;12.80;99.90
21244;DHT22;10780;50.942;4.028;2023-08-07T00:56:26;12.80;99.90
21244;DHT22;10780;50.942;4.028;2023-08-07T00:58:51;12.80;99.90
21244;DHT22;10780;50.942;4.028;2023-08-07T01:01:18;12.70;99.90
21244;DHT22;10780;50.942;4.028;2023-08-07T01:03:44;12.70;99.90
21244;DHT22;10780;50.942;4.028;2023-08-07T01:06:09;12.60;99.90
21244;DHT22;10780;50.942;4.028;2023-08-07T01:08:35;12.60;99.90
21244;DHT22;10780;50.942;4.028;2023-08-07T01:16:42;12.50;99.90
21244;DHT22;10780;50.942;4.028;2023-08-07T01:19:25;12.50;99.90
21244;DHT22;10780;50.942;4.028;2023-08-07T01:22:11;12.50;99.90
21244;DHT22;10780;50.942;4.028;2023-08-07T01:24:39;12.60;99.90
21244;DHT22;10780;50.942;4.028;2023-08-07T01:29:44;12.60;99.90
21244;DHT22;10780;50.942;4.028;2023-08-07T01:32:14;12.60;99.90
21244;DHT22;10780;50.942;4.028;2023-08-07T01:34:43;12.60;99.90
21244;DHT22;10780;50.942;4.028;2023-08-07T01:37:10;12.60;99.90
21244;DHT22;10780;50.942;4.028;2023-08-07T01:39:38;12.50;99.90
21244;DHT22;10780;50.942;4.028;2023-08-07T01:42:05;12.40;99.90
21244;DHT22;10780;50.942;4.028;2023-08-07T01:44:31;12.50;99.90
21244;DHT22;10780;50.942;4.028;2023-08-07T01:46:57;12.40;99.90
21244;DHT22;10780;50.942;4.028;2023-08-07T01:49:22;12.40;99.90
21244;DHT22;10780;50.942;4.028;2023-08-07T01:51:48;12.40;99.90
21244;DHT22;10780;50.942;4.028;2023-08-07T01:54:14;12.40;99.90
21244;DHT22;10780;50.942;4.028;2023-08-07T01:56:40;12.40;99.90
21244;DHT22;10780;50.942;4.028;2023-08-07T01:59:05;12.40;99.90
21244;DHT22;10780;50.942;4.028;2023-08-07T02:01:31;12.30;99.90
21244;DHT22;10780;50.942;4.028;2023-08-07T02:03:57;12.30;99.90
21244;DHT22;10780;50.942;4.028;2023-08-07T02:06:22;12.30;99.90
21244;DHT22;10780;50.942;4.028;2023-08-07T02:08:48;12.30;99.90
21244;DHT22;10780;50.942;4.028;2023-08-07T02:11:13;12.30;99.90
21244;DHT22;10780;50.942;4.028;2023-08-07T02:13:39;12.20;99.90
21244;DHT22;10780;50.942;4.028;2023-08-07T02:16:05;12.20;99.90
21244;DHT22;10780;50.942;4.028;2023-08-07T02:18:30;12.20;99.90
21244;DHT22;10780;50.942;4.028;2023-08-07T02:20:56;12.10;99.90
21244;DHT22;10780;50.942;4.028;2023-08-07T02:23:21;12.20;99.90
21244;DHT22;10780;50.942;4.028;2023-08-07T02:25:48;12.10;99.90
21244;DHT22;10780;50.942;4.028;2023-08-07T02:28:14;12.20;99.90
21244;DHT22;10780;50.942;4.028;2023-08-07T02:30:39;12.20;99.90
21244;DHT22;10780;50.942;4.028;2023-08-07T02:33:05;12.20;99.90
21244;DHT22;10780;50.942;4.028;2023-08-07T02:35:30;12.20;99.90
21244;DHT22;10780;50.942;4.028;2023-08-07T02:37:56;12.20;99.90
21244;DHT22;10780;50.942;4.028;2023-08-07T02:40:22;12.30;99.90
21244;DHT22;10780;50.942;4.028;2023-08-07T02:42:47;12.30;99.90
21244;DHT22;10780;50.942;4.028;2023-08-07T02:45:13;12.30;99.90
21244;DHT22;10780;50.942;4.028;2023-08-07T02:47:39;12.40;99.90
21244;DHT22;10780;50.942;4.028;2023-08-07T02:50:04;12.50;99.90
21244;DHT22;10780;50.942;4.028;2023-08-07T02:52:30;12.50;99.90
21244;DHT22;10780;50.942;4.028;2023-08-07T02:54:56;12.50;99.90
21244;DHT22;10780;50.942;4.028;2023-08-07T02:57:21;12.50;99.90
21244;DHT22;10780;50.942;4.028;2023-08-07T02:59:47;12.40;99.90
21244;DHT22;10780;50.942;4.028;2023-08-07T03:02:13;12.40;99.90
21244;DHT22;10780;50.942;4.028;2023-08-07T03:04:38;12.30;99.90
21244;DHT22;10780;50.942;4.028;2023-08-07T03:07:04;12.20;99.90
21244;DHT22;10780;50.942;4.028;2023-08-07T03:09:29;12.20;99.90
21244;DHT22;10780;50.942;4.028;2023-08-07T03:11:55;12.10;99.90
21244;DHT22;10780;50.942;4.028;2023-08-07T03:14:21;12.10;99.90
21244;DHT22;10780;50.942;4.028;2023-08-07T03:16:46;12.10;99.90
21244;DHT22;10780;50.942;4.028;2023-08-07T03:19:12;12.10;99.90
21244;DHT22;10780;50.942;4.028;2023-08-07T03:21:38;12.10;99.90
21244;DHT22;10780;50.942;4.028;2023-08-07T03:24:04;12.10;99.90
21244;DHT22;10780;50.942;4.028;2023-08-07T03:26:29;12.10;99.90
21244;DHT22;10780;50.942;4.028;2023-08-07T03:28:55;12.10;99.90
21244;DHT22;10780;50.942;4.028;2023-08-07T03:31:21;12.00;99.90
21244;DHT22;10780;50.942;4.028;2023-08-07T03:33:46;12.00;99.90
21244;DHT22;10780;50.942;4.028;2023-08-07T03:36:12;12.00;99.90
21244;DHT22;10780;50.942;4.028;2023-08-07T03:38:38;12.00;99.90
21244;DHT22;10780;50.942;4.028;2023-08-07T03:41:03;11.90;99.90
21244;DHT22;10780;50.942;4.028;2023-08-07T03:43:29;11.90;99.90
21244;DHT22;10780;50.942;4.028;2023-08-07T03:45:55;11.90;99.90
21244;DHT22;10780;50.942;4.028;2023-08-07T03:48:24;11.90;99.90
21244;DHT22;10780;50.942;4.028;2023-08-07T03:50:50;11.90;99.90
21244;DHT22;10780;50.942;4.028;2023-08-07T03:53:15;11.90;99.90
21244;DHT22;10780;50.942;4.028;2023-08-07T03:55:41;11.80;99.90
21244;DHT22;10780;50.942;4.028;2023-08-07T03:58:07;11.90;99.90
21244;DHT22;10780;50.942;4.028;2023-08-07T04:00:33;11.80;99.90
21244;DHT22;10780;50.942;4.028;2023-08-07T04:02:59;11.90;99.90
21244;DHT22;10780;50.942;4.028;2023-08-07T04:05:24;11.90;99.90
21244;DHT22;10780;50.942;4.028;2023-08-07T04:07:50;11.80;99.90
21244;DHT22;10780;50.942;4.028;2023-08-07T04:10:16;11.80;99.90
21244;DHT22;10780;50.942;4.028;2023-08-07T04:12:42;11.80;99.90
21244;DHT22;10780;50.942;4.028;2023-08-07T04:15:09;11.80;99.90
21244;DHT22;10780;50.942;4.028;2023-08-07T04:17:35;11.80;99.90
21244;DHT22;10780;50.942;4.028;2023-08-07T04:20:01;11.80;99.90
21244;DHT22;10780;50.942;4.028;2023-08-07T04:22:28;11.80;99.90
21244;DHT22;10780;50.942;4.028;2023-08-07T04:24:54;11.80;99.90
21244;DHT22;10780;50.942;4.028;2023-08-07T04:27:19;11.80;99.90
21244;DHT22;10780;50.942;4.028;2023-08-07T04:29:45;11.80;99.90
21244;DHT22;10780;50.942;4.028;2023-08-07T04:32:11;11.80;99.90
21244;DHT22;10780;50.942;4.028;2023-08-07T04:34:36;11.90;99.90
21244;DHT22;10780;50.942;4.028;2023-08-07T04:37:02;11.90;99.90
21244;DHT22;10780;50.942;4.028;2023-08-07T04:39:28;11.90;99.90
21244;DHT22;10780;50.942;4.028;2023-08-07T04:41:53;11.90;99.90
21244;DHT22;10780;50.942;4.028;2023-08-07T04:44:19;11.90;99.90
21244;DHT22;10780;50.942;4.028;2023-08-07T04:46:44;12.00;99.90
21244;DHT22;10780;50.942;4.028;2023-08-07T04:49:10;12.00;99.90
21244;DHT22;10780;50.942;4.028;2023-08-07T04:51:36;12.00;99.90
21244;DHT22;10780;50.942;4.028;2023-08-07T04:54:01;12.10;99.90
21244;DHT22;10780;50.942;4.028;2023-08-07T04:56:27;12.10;99.90
21244;DHT22;10780;50.942;4.028;2023-08-07T04:58:52;12.20;99.90
21244;DHT22;10780;50.942;4.028;2023-08-07T05:01:18;12.30;99.90
21244;DHT22;10780;50.942;4.028;2023-08-07T05:03:44;12.30;99.90
21244;DHT22;10780;50.942;4.028;2023-08-07T05:06:09;12.40;99.90
21244;DHT22;10780;50.942;4.028;2023-08-07T05:08:35;12.40;99.90
21244;DHT22;10780;50.942;4.028;2023-08-07T05:11:01;12.40;99.90
21244;DHT22;10780;50.942;4.028;2023-08-07T05:13:26;12.50;99.90
21244;DHT22;10780;50.942;4.028;2023-08-07T05:15:52;12.60;99.90
21244;DHT22;10780;50.942;4.028;2023-08-07T05:18:17;12.70;99.90
21244;DHT22;10780;50.942;4.028;2023-08-07T05:20:43;12.70;99.90
21244;DHT22;10780;50.942;4.028;2023-08-07T05:23:09;12.80;99.90
21244;DHT22;10780;50.942;4.028;2023-08-07T05:25:36;12.80;99.90
21244;DHT22;10780;50.942;4.028;2023-08-07T05:28:02;12.90;99.90
21244;DHT22;10780;50.942;4.028;2023-08-07T05:30:28;12.90;99.90
21244;DHT22;10780;50.942;4.028;2023-08-07T05:32:54;13.00;99.90
21244;DHT22;10780;50.942;4.028;2023-08-07T05:35:20;13.00;99.90
21244;DHT22;10780;50.942;4.028;2023-08-07T05:37:45;13.10;99.90
21244;DHT22;10780;50.942;4.028;2023-08-07T05:40:11;13.20;99.90
21244;DHT22;10780;50.942;4.028;2023-08-07T05:42:37;13.20;99.90
21244;DHT22;10780;50.942;4.028;2023-08-07T05:45:03;13.30;99.90
21244;DHT22;10780;50.942;4.028;2023-08-07T05:47:31;13.40;99.90
21244;DHT22;10780;50.942;4.028;2023-08-07T05:49:57;13.50;99.90
21244;DHT22;10780;50.942;4.028;2023-08-07T05:52:23;13.50;99.90
21244;DHT22;10780;50.942;4.028;2023-08-07T05:54:49;13.60;99.90
21244;DHT22;10780;50.942;4.028;2023-08-07T05:57:14;13.80;99.90
21244;DHT22;10780;50.942;4.028;2023-08-07T05:59:40;13.80;99.90
21244;DHT22;10780;50.942;4.028;2023-08-07T06:02:06;13.90;99.90
21244;DHT22;10780;50.942;4.028;2023-08-07T06:04:31;13.90;99.90
21244;DHT22;10780;50.942;4.028;2023-08-07T06:06:57;14.00;99.90
21244;DHT22;10780;50.942;4.028;2023-08-07T06:09:23;14.00;99.90
21244;DHT22;10780;50.942;4.028;2023-08-07T06:11:48;14.10;99.90
21244;DHT22;10780;50.942;4.028;2023-08-07T06:14:14;14.20;99.90
21244;DHT22;10780;50.942;4.028;2023-08-07T06:16:40;14.30;99.90
21244;DHT22;10780;50.942;4.028;2023-08-07T06:19:05;14.40;99.90
21244;DHT22;10780;50.942;4.028;2023-08-07T06:21:31;14.40;99.90
21244;DHT22;10780;50.942;4.028;2023-08-07T06:23:56;14.40;99.90
21244;DHT22;10780;50.942;4.028;2023-08-07T06:26:22;14.50;99.90
21244;DHT22;10780;50.942;4.028;2023-08-07T06:28:48;14.50;99.90
21244;DHT22;10780;50.942;4.028;2023-08-07T06:31:15;14.60;99.90
21244;DHT22;10780;50.942;4.028;2023-08-07T06:33:41;14.70;99.90
21244;DHT22;10780;50.942;4.028;2023-08-07T06:36:07;14.70;99.90
21244;DHT22;10780;50.942;4.028;2023-08-07T06:38:34;14.70;99.90
21244;DHT22;10780;50.942;4.028;2023-08-07T06:40:59;14.70;99.90
21244;DHT22;10780;50.942;4.028;2023-08-07T06:43:25;14.70;99.90
21244;DHT22;10780;50.942;4.028;2023-08-07T06:45:53;14.80;99.90
21244;DHT22;10780;50.942;4.028;2023-08-07T06:48:19;14.80;99.90
21244;DHT22;10780;50.942;4.028;2023-08-07T06:50:46;14.90;99.90
21244;DHT22;10780;50.942;4.028;2023-08-07T06:53:12;14.90;99.90
21244;DHT22;10780;50.942;4.028;2023-08-07T06:55:38;15.00;99.90
21244;DHT22;10780;50.942;4.028;2023-08-07T06:58:03;15.10;99.90
21244;DHT22;10780;50.942;4.028;2023-08-07T07:00:29;15.20;99.90
21244;DHT22;10780;50.942;4.028;2023-08-07T07:02:55;15.30;99.90
21244;DHT22;10780;50.942;4.028;2023-08-07T07:05:21;15.30;99.90
21244;DHT22;10780;50.942;4.028;2023-08-07T07:07:46;15.50;99.90
21244;DHT22;10780;50.942;4.028;2023-08-07T07:10:12;15.50;99.90
21244;DHT22;10780;50.942;4.028;2023-08-07T07:12:38;15.50;99.90
21244;DHT22;10780;50.942;4.028;2023-08-07T07:15:04;15.60;99.90
21244;DHT22;10780;50.942;4.028;2023-08-07T07:17:29;15.70;99.90
21244;DHT22;10780;50.942;4.028;2023-08-07T07:19:55;15.80;99.90
21244;DHT22;10780;50.942;4.028;2023-08-07T07:22:22;15.90;99.90
21244;DHT22;10780;50.942;4.028;2023-08-07T07:24:47;15.90;99.90
21244;DHT22;10780;50.942;4.028;2023-08-07T07:27:13;16.10;99.90
21244;DHT22;10780;50.942;4.028;2023-08-07T07:29:39;16.10;99.90
21244;DHT22;10780;50.942;4.028;2023-08-07T07:32:05;16.20;99.90
21244;DHT22;10780;50.942;4.028;2023-08-07T07:34:30;16.20;99.90
21244;DHT22;10780;50.942;4.028;2023-08-07T07:36:56;16.40;99.90
21244;DHT22;10780;50.942;4.028;2023-08-07T07:39:22;16.50;99.90
21244;DHT22;10780;50.942;4.028;2023-08-07T07:41:47;16.60;99.90
21244;DHT22;10780;50.942;4.028;2023-08-07T07:44:13;16.70;99.90
21244;DHT22;10780;50.942;4.028;2023-08-07T07:46:38;16.60;99.90
21244;DHT22;10780;50.942;4.028;2023-08-07T07:49:04;16.50;99.90
21244;DHT22;10780;50.942;4.028;2023-08-07T07:51:31;16.50;99.90
21244;DHT22;10780;50.942;4.028;2023-08-07T07:53:57;16.50;99.90
21244;DHT22;10780;50.942;4.028;2023-08-07T07:56:23;16.60;99.90
21244;DHT22;10780;50.942;4.028;2023-08-07T07:58:49;16.60;99.90
21244;DHT22;10780;50.942;4.028;2023-08-07T08:01:14;16.70;99.90
21244;DHT22;10780;50.942;4.028;2023-08-07T08:03:40;16.90;99.90
21244;DHT22;10780;50.942;4.028;2023-08-07T08:06:06;16.90;99.90
21244;DHT22;10780;50.942;4.028;2023-08-07T08:08:31;17.10;99.90
21244;DHT22;10780;50.942;4.028;2023-08-07T08:10:57;17.20;99.90
21244;DHT22;10780;50.942;4.028;2023-08-07T08:13:22;17.30;99.90
21244;DHT22;10780;50.942;4.028;2023-08-07T08:15:50;17.40;99.90
21244;DHT22;10780;50.942;4.028;2023-08-07T08:18:16;17.50;99.90
21244;DHT22;10780;50.942;4.028;2023-08-07T08:20:42;17.60;99.90
21244;DHT22;10780;50.942;4.028;2023-08-07T08:23:07;17.50;99.90
21244;DHT22;10780;50.942;4.028;2023-08-07T08:25:33;17.60;99.90
21244;DHT22;10780;50.942;4.028;2023-08-07T08:27:59;17.80;99.90
21244;DHT22;10780;50.942;4.028;2023-08-07T08:30:25;17.90;99.90
21244;DHT22;10780;50.942;4.028;2023-08-07T08:32:51;18.10;99.90
21244;DHT22;10780;50.942;4.028;2023-08-07T08:35:17;18.10;99.90
21244;DHT22;10780;50.942;4.028;2023-08-07T08:37:42;18.20;99.90
21244;DHT22;10780;50.942;4.028;2023-08-07T08:40:09;18.00;99.90
21244;DHT22;10780;50.942;4.028;2023-08-07T08:42:43;17.90;99.90
21244;DHT22;10780;50.942;4.028;2023-08-07T08:45:13;17.80;99.90
21244;DHT22;10780;50.942;4.028;2023-08-07T08:47:39;18.00;99.90
21244;DHT22;10780;50.942;4.028;2023-08-07T08:50:11;18.20;99.90
21244;DHT22;10780;50.942;4.028;2023-08-07T08:52:40;18.10;99.90
21244;DHT22;10780;50.942;4.028;2023-08-07T08:55:06;18.00;99.90
21244;DHT22;10780;50.942;4.028;2023-08-07T08:57:33;18.00;99.90
21244;DHT22;10780;50.942;4.028;2023-08-07T08:59:58;18.20;99.90
21244;DHT22;10780;50.942;4.028;2023-08-07T09:02:25;18.40;99.90
21244;DHT22;10780;50.942;4.028;2023-08-07T09:04:51;18.60;99.90
21244;DHT22;10780;50.942;4.028;2023-08-07T09:07:19;18.70;99.90
21244;DHT22;10780;50.942;4.028;2023-08-07T09:09:46;18.80;99.90
21244;DHT22;10780;50.942;4.028;2023-08-07T09:12:32;18.80;99.90
21244;DHT22;10780;50.942;4.028;2023-08-07T09:15:01;18.60;99.90
21244;DHT22;10780;50.942;4.028;2023-08-07T09:17:28;18.60;99.90
21244;DHT22;10780;50.942;4.028;2023-08-07T09:19:58;18.70;99.90
21244;DHT22;10780;50.942;4.028;2023-08-07T09:22:24;18.60;99.90
21244;DHT22;10780;50.942;4.028;2023-08-07T09:24:49;18.70;99.90
21244;DHT22;10780;50.942;4.028;2023-08-07T09:27:15;18.90;99.90
21244;DHT22;10780;50.942;4.028;2023-08-07T09:29:41;18.80;99.90
21244;DHT22;10780;50.942;4.028;2023-08-07T09:32:11;18.90;99.90
21244;DHT22;10780;50.942;4.028;2023-08-07T09:34:42;18.70;99.90
21244;DHT22;10780;50.942;4.028;2023-08-07T09:37:08;18.70;99.90
21244;DHT22;10780;50.942;4.028;2023-08-07T09:39:35;18.90;99.90
21244;DHT22;10780;50.942;4.028;2023-08-07T09:42:02;19.20;99.90
21244;DHT22;10780;50.942;4.028;2023-08-07T09:44:36;19.30;99.90
21244;DHT22;10780;50.942;4.028;2023-08-07T09:47:17;19.30;99.90
21244;DHT22;10780;50.942;4.028;2023-08-07T09:49:44;19.40;99.90
21244;DHT22;10780;50.942;4.028;2023-08-07T09:52:11;19.30;99.90
21244;DHT22;10780;50.942;4.028;2023-08-07T09:54:39;19.30;99.90
21244;DHT22;10780;50.942;4.028;2023-08-07T09:57:05;19.20;99.90
21244;DHT22;10780;50.942;4.028;2023-08-07T09:59:34;19.10;99.90
21244;DHT22;10780;50.942;4.028;2023-08-07T10:02:03;19.10;99.90
21244;DHT22;10780;50.942;4.028;2023-08-07T10:04:30;18.90;99.90
21244;DHT22;10780;50.942;4.028;2023-08-07T10:06:56;19.20;99.90
21244;DHT22;10780;50.942;4.028;2023-08-07T10:09:23;19.50;99.90
21244;DHT22;10780;50.942;4.028;2023-08-07T10:11:52;19.60;99.90
21244;DHT22;10780;50.942;4.028;2023-08-07T10:14:18;19.90;99.90
21244;DHT22;10780;50.942;4.028;2023-08-07T10:16:45;20.10;99.90
21244;DHT22;10780;50.942;4.028;2023-08-07T10:19:11;20.10;99.90
21244;DHT22;10780;50.942;4.028;2023-08-07T10:21:39;20.10;99.90
21244;DHT22;10780;50.942;4.028;2023-08-07T10:24:06;20.10;99.90
21244;DHT22;10780;50.942;4.028;2023-08-07T10:26:34;19.60;99.90
21244;DHT22;10780;50.942;4.028;2023-08-07T10:29:02;19.50;99.90
21244;DHT22;10780;50.942;4.028;2023-08-07T10:31:30;19.50;99.90
21244;DHT22;10780;50.942;4.028;2023-08-07T10:33:57;19.80;99.90
21244;DHT22;10780;50.942;4.028;2023-08-07T10:36:23;20.10;99.90
21244;DHT22;10780;50.942;4.028;2023-08-07T10:39:08;20.10;99.90
21244;DHT22;10780;50.942;4.028;2023-08-07T10:41:39;20.20;99.90
21244;DHT22;10780;50.942;4.028;2023-08-07T10:44:05;20.30;99.90
21244;DHT22;10780;50.942;4.028;2023-08-07T10:46:47;20.40;99.90
21244;DHT22;10780;50.942;4.028;2023-08-07T10:49:40;20.30;99.90
21244;DHT22;10780;50.942;4.028;2023-08-07T10:52:09;20.20;99.90
21244;DHT22;10780;50.942;4.028;2023-08-07T10:54:39;20.00;99.90
21244;DHT22;10780;50.942;4.028;2023-08-07T10:57:11;20.10;99.90
21244;DHT22;10780;50.942;4.028;2023-08-07T10:59:38;20.30;99.90
21244;DHT22;10780;50.942;4.028;2023-08-07T11:02:08;20.70;99.90
21244;DHT22;10780;50.942;4.028;2023-08-07T11:04:36;21.00;99.90
21244;DHT22;10780;50.942;4.028;2023-08-07T11:07:02;20.90;99.90
21244;DHT22;10780;50.942;4.028;2023-08-07T11:09:28;20.90;99.90
21244;DHT22;10780;50.942;4.028;2023-08-07T11:11:53;20.60;99.90
21244;DHT22;10780;50.942;4.028;2023-08-07T11:14:19;20.70;99.90
21244;DHT22;10780;50.942;4.028;2023-08-07T11:16:47;20.60;99.90
21244;DHT22;10780;50.942;4.028;2023-08-07T11:19:17;20.40;99.90
21244;DHT22;10780;50.942;4.028;2023-08-07T11:21:43;20.70;99.90
21244;DHT22;10780;50.942;4.028;2023-08-07T11:24:12;20.90;99.90
21244;DHT22;10780;50.942;4.028;2023-08-07T11:26:39;21.20;99.90
21244;DHT22;10780;50.942;4.028;2023-08-07T11:29:04;21.20;99.90
21244;DHT22;10780;50.942;4.028;2023-08-07T11:31:30;21.00;99.90
21244;DHT22;10780;50.942;4.028;2023-08-07T11:33:56;20.90;99.90
21244;DHT22;10780;50.942;4.028;2023-08-07T11:36:28;20.50;99.90
21244;DHT22;10780;50.942;4.028;2023-08-07T11:38:54;20.60;99.90
21244;DHT22;10780;50.942;4.028;2023-08-07T11:41:20;20.50;99.90
21244;DHT22;10780;50.942;4.028;2023-08-07T11:43:46;20.50;99.90
21244;DHT22;10780;50.942;4.028;2023-08-07T11:46:14;20.70;99.90
21244;DHT22;10780;50.942;4.028;2023-08-07T11:48:41;20.90;99.90
21244;DHT22;10780;50.942;4.028;2023-08-07T11:51:07;20.80;99.90
21244;DHT22;10780;50.942;4.028;2023-08-07T11:53:37;21.00;99.90
21244;DHT22;10780;50.942;4.028;2023-08-07T11:56:05;21.00;99.90
21244;DHT22;10780;50.942;4.028;2023-08-07T11:58:51;20.80;99.90
21244;DHT22;10780;50.942;4.028;2023-08-07T12:01:20;20.60;99.90
21244;DHT22;10780;50.942;4.028;2023-08-07T12:03:56;20.70;99.90
21244;DHT22;10780;50.942;4.028;2023-08-07T12:06:25;20.50;99.90
21244;DHT22;10780;50.942;4.028;2023-08-07T12:08:54;20.50;99.90
21244;DHT22;10780;50.942;4.028;2023-08-07T12:11:20;20.50;99.90
21244;DHT22;10780;50.942;4.028;2023-08-07T12:13:47;20.60;99.90
21244;DHT22;10780;50.942;4.028;2023-08-07T12:16:14;21.00;99.90
21244;DHT22;10780;50.942;4.028;2023-08-07T12:18:50;20.80;99.90
21244;DHT22;10780;50.942;4.028;2023-08-07T12:21:21;21.00;99.90
21244;DHT22;10780;50.942;4.028;2023-08-07T12:23:49;21.20;99.90
21244;DHT22;10780;50.942;4.028;2023-08-07T12:26:16;21.70;99.90
21244;DHT22;10780;50.942;4.028;2023-08-07T12:28:42;21.90;99.90
21244;DHT22;10780;50.942;4.028;2023-08-07T12:31:08;21.60;99.90
21244;DHT22;10780;50.942;4.028;2023-08-07T12:33:34;21.40;99.90
21244;DHT22;10780;50.942;4.028;2023-08-07T12:35:59;21.30;99.90
21244;DHT22;10780;50.942;4.028;2023-08-07T12:38:26;21.10;99.90
21244;DHT22;10780;50.942;4.028;2023-08-07T12:40:52;21.20;99.90
21244;DHT22;10780;50.942;4.028;2023-08-07T12:43:17;21.10;99.90
21244;DHT22;10780;50.942;4.028;2023-08-07T12:45:43;21.10;99.90
21244;DHT22;10780;50.942;4.028;2023-08-07T12:48:09;21.20;99.90
21244;DHT22;10780;50.942;4.028;2023-08-07T12:50:35;21.20;99.90
21244;DHT22;10780;50.942;4.028;2023-08-07T12:53:01;21.20;99.90
21244;DHT22;10780;50.942;4.028;2023-08-07T12:55:27;21.40;99.90
21244;DHT22;10780;50.942;4.028;2023-08-07T12:57:53;21.40;99.90
21244;DHT22;10780;50.942;4.028;2023-08-07T13:00:20;21.20;99.90
21244;DHT22;10780;50.942;4.028;2023-08-07T13:02:47;21.00;99.90
21244;DHT22;10780;50.942;4.028;2023-08-07T13:05:13;21.00;99.90
21244;DHT22;10780;50.942;4.028;2023-08-07T13:07:40;21.30;99.90
21244;DHT22;10780;50.942;4.028;2023-08-07T13:10:07;21.70;99.90
21244;DHT22;10780;50.942;4.028;2023-08-07T13:12:37;21.60;99.90
21244;DHT22;10780;50.942;4.028;2023-08-07T13:15:04;21.90;99.90
21244;DHT22;10780;50.942;4.028;2023-08-07T13:17:30;21.60;99.90
21244;DHT22;10780;50.942;4.028;2023-08-07T13:19:56;21.80;99.90
21244;DHT22;10780;50.942;4.028;2023-08-07T13:22:22;22.10;99.90
21244;DHT22;10780;50.942;4.028;2023-08-07T13:24:48;22.10;99.90
21244;DHT22;10780;50.942;4.028;2023-08-07T13:27:13;22.30;99.90
21244;DHT22;10780;50.942;4.028;2023-08-07T13:29:42;22.60;99.90
21244;DHT22;10780;50.942;4.028;2023-08-07T13:32:07;22.10;99.90
21244;DHT22;10780;50.942;4.028;2023-08-07T13:34:36;22.10;99.90
21244;DHT22;10780;50.942;4.028;2023-08-07T13:37:05;21.90;99.90
21244;DHT22;10780;50.942;4.028;2023-08-07T13:39:31;21.70;99.90
21244;DHT22;10780;50.942;4.028;2023-08-07T13:41:57;21.60;99.90
21244;DHT22;10780;50.942;4.028;2023-08-07T13:44:22;21.60;99.90
21244;DHT22;10780;50.942;4.028;2023-08-07T13:46:48;21.90;99.90
21244;DHT22;10780;50.942;4.028;2023-08-07T13:49:14;22.00;99.90
21244;DHT22;10780;50.942;4.028;2023-08-07T13:51:41;22.30;99.90
21244;DHT22;10780;50.942;4.028;2023-08-07T13:54:06;22.40;99.90
21244;DHT22;10780;50.942;4.028;2023-08-07T13:56:33;22.40;99.90
21244;DHT22;10780;50.942;4.028;2023-08-07T13:58:59;22.00;99.90
21244;DHT22;10780;50.942;4.028;2023-08-07T14:01:25;21.70;99.90
21244;DHT22;10780;50.942;4.028;2023-08-07T14:03:51;21.50;99.90
21244;DHT22;10780;50.942;4.028;2023-08-07T14:06:16;21.40;99.90
21244;DHT22;10780;50.942;4.028;2023-08-07T14:08:42;21.30;99.90
21244;DHT22;10780;50.942;4.028;2023-08-07T14:11:08;21.60;99.90
21244;DHT22;10780;50.942;4.028;2023-08-07T14:13:33;21.50;99.90
21244;DHT22;10780;50.942;4.028;2023-08-07T14:15:59;21.20;99.90
21244;DHT22;10780;50.942;4.028;2023-08-07T14:18:24;21.10;99.90
21244;DHT22;10780;50.942;4.028;2023-08-07T14:20:50;20.90;99.90
21244;DHT22;10780;50.942;4.028;2023-08-07T14:23:16;21.10;99.90
21244;DHT22;10780;50.942;4.028;2023-08-07T14:25:41;20.80;99.90
21244;DHT22;10780;50.942;4.028;2023-08-07T14:28:08;20.70;99.90
21244;DHT22;10780;50.942;4.028;2023-08-07T14:30:33;20.60;99.90
21244;DHT22;10780;50.942;4.028;2023-08-07T14:32:59;21.00;99.90
21244;DHT22;10780;50.942;4.028;2023-08-07T14:35:25;21.70;99.90
21244;DHT22;10780;50.942;4.028;2023-08-07T14:37:50;21.90;99.90
21244;DHT22;10780;50.942;4.028;2023-08-07T14:40:16;21.80;99.90
21244;DHT22;10780;50.942;4.028;2023-08-07T14:42:41;21.70;99.90
21244;DHT22;10780;50.942;4.028;2023-08-07T14:45:07;21.90;99.90
21244;DHT22;10780;50.942;4.028;2023-08-07T14:47:33;22.00;99.90
21244;DHT22;10780;50.942;4.028;2023-08-07T14:49:59;22.40;99.90
21244;DHT22;10780;50.942;4.028;2023-08-07T14:52:25;22.20;99.90
21244;DHT22;10780;50.942;4.028;2023-08-07T14:54:50;23.00;99.90
21244;DHT22;10780;50.942;4.028;2023-08-07T14:57:18;23.10;99.90
21244;DHT22;10780;50.942;4.028;2023-08-07T14:59:44;22.80;99.90
21244;DHT22;10780;50.942;4.028;2023-08-07T15:02:09;23.00;99.90
21244;DHT22;10780;50.942;4.028;2023-08-07T15:04:35;23.30;99.90
21244;DHT22;10780;50.942;4.028;2023-08-07T15:07:00;23.20;99.90
21244;DHT22;10780;50.942;4.028;2023-08-07T15:09:26;23.10;99.90
21244;DHT22;10780;50.942;4.028;2023-08-07T15:11:52;23.70;99.90
21244;DHT22;10780;50.942;4.028;2023-08-07T15:14:17;23.60;99.90
21244;DHT22;10780;50.942;4.028;2023-08-07T15:16:43;23.60;99.90
21244;DHT22;10780;50.942;4.028;2023-08-07T15:19:09;23.80;99.90
21244;DHT22;10780;50.942;4.028;2023-08-07T15:21:34;24.50;99.90
21244;DHT22;10780;50.942;4.028;2023-08-07T15:24:00;24.20;99.90
21244;DHT22;10780;50.942;4.028;2023-08-07T15:26:26;23.50;99.90
21244;DHT22;10780;50.942;4.028;2023-08-07T15:28:51;23.60;99.90
21244;DHT22;10780;50.942;4.028;2023-08-07T15:31:17;23.50;99.90
21244;DHT22;10780;50.942;4.028;2023-08-07T15:33:42;23.30;99.90